createdAt,value
2018-05-12T00:00:52.972Z,97.61
2018-05-12T00:01:53.084Z,97.61
2018-05-12T00:02:53.403Z,97.71
2018-05-12T00:03:52.515Z,97.71
2018-05-12T00:04:52.610Z,97.80
2018-05-12T00:05:52.368Z,97.80
2018-05-12T00:07:13.877Z,97.80
2018-05-12T00:08:14.499Z,97.90
2018-05-12T00:09:14.072Z,97.90
2018-05-12T00:10:14.278Z,97.99
2018-05-12T00:11:13.873Z,98.18
2018-05-12T00:12:14.546Z,98.18
2018-05-12T00:13:14.396Z,98.18
2018-05-12T00:14:13.959Z,98.18
2018-05-12T00:15:35.414Z,98.18
2018-05-12T00:16:36.393Z,98.28
2018-05-12T00:17:35.942Z,98.23
2018-05-12T00:18:36.162Z,98.33
2018-05-12T00:19:36.329Z,98.42
2018-05-12T00:20:36.096Z,98.42
2018-05-12T00:21:36.102Z,98.42
2018-05-12T00:22:36.775Z,98.42
2018-05-12T00:23:35.811Z,98.42
2018-05-12T00:24:35.969Z,98.52
2018-05-12T00:25:35.912Z,98.52
2018-05-12T00:26:35.954Z,98.71
2018-05-12T00:27:58.695Z,98.80
2018-05-12T00:28:58.769Z,98.80
2018-05-12T00:30:19.475Z,98.90
2018-05-12T00:31:19.489Z,98.90
2018-05-12T00:32:40.017Z,98.99
2018-05-12T00:33:40.178Z,98.99
2018-05-12T00:34:39.875Z,98.99
2018-05-12T00:35:40.015Z,99.19
2018-05-12T00:36:40.291Z,99.09
2018-05-12T00:37:40.460Z,99.09
2018-05-12T00:39:00.908Z,99.09
2018-05-12T00:40:22.833Z,99.19
2018-05-12T00:41:22.620Z,99.28
2018-05-12T00:42:43.616Z,99.28
2018-05-12T00:43:44.148Z,99.38
2018-05-12T00:44:44.304Z,99.38
2018-05-12T00:45:44.104Z,99.48
2018-05-12T00:46:43.899Z,99.57
2018-05-12T00:47:44.798Z,99.57
2018-05-12T00:48:44.514Z,99.66
2018-05-12T00:49:44.396Z,99.76
2018-05-12T00:51:05.237Z,99.85
2018-05-12T00:52:05.339Z,99.76
2018-05-12T00:53:05.352Z,99.76
2018-05-12T00:54:05.055Z,99.95
2018-05-12T00:55:06.158Z,99.95
2018-05-12T00:56:05.265Z,99.95
2018-05-12T00:57:04.894Z,99.95
2018-05-12T00:58:05.883Z,99.99
2018-05-12T00:59:05.577Z,99.99
2018-05-12T01:00:46.837Z,99.99
2018-05-12T01:01:47.387Z,99.99
2018-05-12T01:02:47.142Z,99.99
2018-05-12T01:03:46.912Z,99.99
2018-05-12T01:04:48.013Z,99.99
2018-05-12T01:05:47.959Z,99.99
2018-05-12T01:07:07.862Z,99.99
2018-05-12T01:08:08.626Z,99.99
2018-05-12T01:09:08.744Z,99.99
2018-05-12T01:10:08.443Z,99.99
2018-05-12T01:11:08.555Z,99.99
2018-05-12T01:12:08.621Z,99.99
2018-05-12T01:13:08.285Z,99.99
2018-05-12T01:14:08.243Z,99.99
2018-05-12T01:15:07.944Z,99.99
2018-05-12T01:16:08.570Z,99.99
2018-05-12T01:17:28.910Z,99.99
2018-05-12T01:18:50.271Z,99.99
2018-05-12T01:19:51.388Z,99.99
2018-05-12T01:20:50.945Z,99.99
2018-05-12T01:21:51.098Z,99.99
2018-05-12T01:22:50.713Z,99.99
2018-05-12T01:23:51.952Z,99.99
2018-05-12T01:24:50.919Z,99.99
2018-05-12T01:25:50.804Z,99.99
2018-05-12T01:26:50.413Z,99.99
2018-05-12T01:27:50.302Z,99.99
2018-05-12T01:28:50.933Z,99.99
2018-05-12T01:29:50.557Z,99.99
2018-05-12T01:30:50.289Z,99.99
2018-05-12T01:31:50.956Z,99.99
2018-05-12T01:32:51.022Z,99.99
2018-05-12T01:33:50.596Z,99.99
2018-05-12T01:34:50.696Z,99.99
2018-05-12T01:35:50.463Z,99.99
2018-05-12T01:36:51.390Z,99.99
2018-05-12T01:37:50.931Z,99.99
2018-05-12T01:38:50.651Z,99.99
2018-05-12T01:39:50.829Z,99.99
2018-05-12T01:40:50.539Z,99.99
2018-05-12T01:41:51.156Z,99.99
2018-05-12T01:42:51.079Z,99.99
2018-05-12T01:43:50.922Z,99.99
2018-05-12T01:44:51.057Z,99.99
2018-05-12T01:45:51.009Z,99.99
2018-05-12T01:46:50.688Z,99.99
2018-05-12T01:47:50.772Z,99.99
2018-05-12T01:48:50.417Z,99.99
2018-05-12T01:49:51.496Z,99.99
2018-05-12T01:50:50.643Z,99.99
2018-05-12T01:51:50.235Z,99.99
2018-05-12T01:52:51.218Z,99.99
2018-05-12T01:53:50.779Z,99.99
2018-05-12T01:54:50.854Z,99.99
2018-05-12T01:55:50.845Z,99.99
2018-05-12T01:57:11.552Z,99.99
2018-05-12T01:58:11.574Z,99.99
2018-05-12T01:59:11.743Z,99.99
2018-05-12T02:00:11.703Z,99.99
2018-05-12T02:01:11.810Z,99.99
2018-05-12T02:02:11.423Z,99.99
2018-05-12T02:03:12.120Z,99.99
2018-05-12T02:04:11.825Z,99.99
2018-05-12T02:05:11.919Z,99.99
2018-05-12T02:06:11.729Z,99.99
2018-05-12T02:07:11.373Z,99.99
2018-05-12T02:08:11.936Z,99.99
2018-05-12T02:09:32.358Z,99.99
2018-05-12T02:10:32.320Z,99.99
2018-05-12T02:11:32.898Z,99.99
2018-05-12T02:12:32.576Z,99.99
2018-05-12T02:13:32.076Z,99.99
2018-05-12T02:14:33.055Z,99.99
2018-05-12T02:15:32.692Z,99.99
2018-05-12T02:16:53.656Z,99.99
2018-05-12T02:17:53.392Z,99.99
2018-05-12T02:18:54.453Z,99.99
2018-05-12T02:19:54.540Z,99.99
2018-05-12T02:20:53.352Z,99.99
2018-05-12T02:21:54.101Z,99.99
2018-05-12T02:22:54.024Z,99.99
2018-05-12T02:23:54.118Z,99.99
2018-05-12T02:24:53.854Z,99.99
2018-05-12T02:25:53.607Z,99.99
2018-05-12T02:27:34.130Z,99.99
2018-05-12T02:28:55.034Z,99.99
2018-05-12T02:29:55.639Z,99.99
2018-05-12T02:30:55.321Z,99.99
2018-05-12T02:31:55.984Z,99.99
2018-05-12T02:32:56.003Z,99.99
2018-05-12T02:33:55.898Z,99.99
2018-05-12T02:35:16.261Z,99.99
2018-05-12T02:36:19.467Z,99.99
2018-05-12T02:37:17.076Z,99.99
2018-05-12T02:38:16.827Z,99.99
2018-05-12T02:39:16.852Z,99.99
2018-05-12T02:40:17.539Z,99.99
2018-05-12T02:41:17.511Z,99.99
2018-05-12T02:42:17.599Z,99.99
2018-05-12T02:43:16.361Z,99.99
2018-05-12T02:44:17.398Z,99.99
2018-05-12T02:45:17.054Z,99.99
2018-05-12T02:46:16.834Z,99.99
2018-05-12T02:47:16.844Z,99.99
2018-05-12T02:48:16.748Z,99.99
2018-05-12T02:49:16.579Z,99.99
2018-05-12T02:50:16.390Z,99.99
2018-05-12T02:51:38.044Z,99.99
2018-05-12T02:52:38.818Z,99.99
2018-05-12T02:53:59.411Z,99.99
2018-05-12T02:55:00.101Z,99.99
2018-05-12T02:56:00.113Z,99.99
2018-05-12T02:57:00.224Z,99.99
2018-05-12T02:58:00.113Z,99.99
2018-05-12T02:59:00.089Z,99.99
2018-05-12T03:01:01.470Z,99.99
2018-05-12T03:02:01.242Z,99.99
2018-05-12T03:03:01.860Z,99.99
2018-05-12T03:04:01.493Z,99.99
2018-05-12T03:05:01.598Z,99.99
2018-05-12T03:06:01.584Z,99.99
2018-05-12T03:07:01.381Z,99.99
2018-05-12T03:08:02.370Z,99.99
2018-05-12T03:09:01.593Z,99.99
2018-05-12T03:10:01.465Z,99.99
2018-05-12T03:11:02.570Z,99.99
2018-05-12T03:12:01.159Z,99.99
2018-05-12T03:13:02.298Z,99.99
2018-05-12T03:14:01.900Z,99.99
2018-05-12T03:15:01.526Z,99.99
2018-05-12T03:16:01.075Z,99.99
2018-05-12T03:17:01.812Z,99.99
2018-05-12T03:18:01.451Z,99.99
2018-05-12T03:19:21.595Z,99.99
2018-05-12T03:20:22.297Z,99.99
2018-05-12T03:21:22.338Z,99.99
2018-05-12T03:22:22.131Z,99.99
2018-05-12T03:23:21.890Z,99.99
2018-05-12T03:24:22.833Z,99.99
2018-05-12T03:25:22.445Z,99.99
2018-05-12T03:26:43.101Z,99.99
2018-05-12T03:27:43.818Z,99.99
2018-05-12T03:28:43.707Z,99.99
2018-05-12T03:30:04.208Z,99.99
2018-05-12T03:31:04.022Z,99.99
2018-05-12T03:32:04.822Z,99.99
2018-05-12T03:33:45.821Z,99.99
2018-05-12T03:34:46.958Z,99.99
2018-05-12T03:35:46.877Z,99.99
2018-05-12T03:36:46.534Z,99.99
2018-05-12T03:37:46.542Z,99.99
2018-05-12T03:38:46.664Z,99.99
2018-05-12T03:40:06.942Z,99.99
2018-05-12T03:41:07.866Z,99.99
2018-05-12T03:42:07.496Z,99.99
2018-05-12T03:43:07.597Z,99.99
2018-05-12T03:44:07.137Z,99.99
2018-05-12T03:45:28.181Z,99.99
2018-05-12T03:46:28.920Z,99.99
2018-05-12T03:47:28.922Z,99.99
2018-05-12T03:48:28.915Z,99.99
2018-05-12T03:49:28.567Z,99.99
2018-05-12T03:50:28.264Z,99.99
2018-05-12T03:51:49.885Z,99.99
2018-05-12T03:52:50.736Z,99.99
2018-05-12T03:53:50.371Z,99.99
2018-05-12T03:54:50.435Z,99.99
2018-05-12T03:55:50.187Z,99.99
2018-05-12T03:56:50.850Z,99.99
2018-05-12T03:57:50.397Z,99.99
2018-05-12T03:58:50.224Z,99.99
2018-05-12T03:59:50.662Z,99.99
2018-05-12T04:00:50.803Z,99.99
2018-05-12T04:01:50.730Z,99.99
2018-05-12T04:03:31.483Z,99.99
2018-05-12T04:05:14.126Z,99.99
2018-05-12T04:06:14.196Z,99.99
2018-05-12T04:07:14.173Z,99.99
2018-05-12T04:08:56.314Z,99.99
2018-05-12T04:10:16.862Z,99.99
2018-05-12T04:11:16.631Z,99.99
2018-05-12T04:12:17.700Z,99.99
2018-05-12T04:13:37.477Z,99.99
2018-05-12T04:14:37.200Z,99.99
2018-05-12T04:15:38.033Z,99.99
2018-05-12T04:16:38.277Z,99.99
2018-05-12T04:17:37.965Z,99.99
2018-05-12T04:18:38.003Z,99.99
2018-05-12T04:19:38.062Z,99.99
2018-05-12T04:20:38.091Z,99.99
2018-05-12T04:21:38.284Z,99.99
2018-05-12T04:22:57.525Z,99.99
2018-05-12T04:23:58.650Z,99.99
2018-05-12T04:24:58.837Z,99.99
2018-05-12T04:25:57.972Z,99.99
2018-05-12T04:26:57.864Z,99.99
2018-05-12T04:27:58.803Z,99.99
2018-05-12T04:28:57.549Z,99.99
2018-05-12T04:29:58.384Z,99.99
2018-05-12T04:30:58.208Z,99.99
2018-05-12T04:31:58.203Z,99.99
2018-05-12T04:32:58.232Z,99.99
2018-05-12T04:33:58.053Z,99.99
2018-05-12T04:34:58.299Z,99.99
2018-05-12T04:35:58.409Z,99.99
2018-05-12T04:36:58.193Z,99.99
2018-05-12T04:37:58.134Z,99.99
2018-05-12T04:38:58.268Z,99.99
2018-05-12T04:39:58.457Z,99.99
2018-05-12T04:40:58.571Z,99.99
2018-05-12T04:41:58.705Z,99.99
2018-05-12T04:42:58.808Z,99.99
2018-05-12T04:43:57.462Z,99.99
2018-05-12T04:44:58.352Z,99.99
2018-05-12T04:46:02.811Z,99.99
2018-05-12T04:46:58.091Z,99.99
2018-05-12T04:47:57.856Z,99.99
2018-05-12T04:48:58.180Z,99.99
2018-05-12T04:49:57.938Z,99.99
2018-05-12T04:50:58.137Z,99.99
2018-05-12T04:52:18.489Z,99.99
2018-05-12T04:53:20.704Z,99.99
2018-05-12T04:54:19.077Z,99.99
2018-05-12T04:55:19.093Z,99.99
2018-05-12T04:56:19.135Z,99.99
2018-05-12T04:57:18.773Z,99.99
2018-05-12T04:58:18.773Z,99.99
2018-05-12T04:59:19.366Z,99.99
2018-05-12T05:00:19.535Z,99.99
2018-05-12T05:01:19.326Z,99.99
2018-05-12T05:02:19.072Z,99.99
2018-05-12T05:03:19.340Z,99.99
2018-05-12T05:04:19.438Z,99.99
2018-05-12T05:05:19.698Z,99.99
2018-05-12T05:06:19.751Z,99.99
2018-05-12T05:07:19.003Z,99.99
2018-05-12T05:08:39.365Z,99.99
2018-05-12T05:09:39.597Z,99.99
2018-05-12T05:10:39.880Z,99.99
2018-05-12T05:11:39.918Z,99.99
2018-05-12T05:12:39.836Z,99.99
2018-05-12T05:13:39.573Z,99.99
2018-05-12T05:14:39.807Z,99.99
2018-05-12T05:16:02.181Z,99.99
2018-05-12T05:17:00.189Z,99.99
2018-05-12T05:18:01.012Z,99.99
2018-05-12T05:19:21.889Z,99.99
2018-05-12T05:20:22.316Z,99.99
2018-05-12T05:21:22.582Z,99.99
2018-05-12T05:22:22.989Z,99.99
2018-05-12T05:23:22.148Z,99.99
2018-05-12T05:24:22.395Z,99.99
2018-05-12T05:25:43.111Z,99.99
2018-05-12T05:26:44.200Z,99.99
2018-05-12T05:27:44.055Z,99.99
2018-05-12T05:28:44.051Z,99.99
2018-05-12T05:30:05.469Z,99.99
2018-05-12T05:31:05.471Z,99.99
2018-05-12T05:32:05.214Z,99.99
2018-05-12T05:33:05.063Z,99.99
2018-05-12T05:34:05.148Z,99.99
2018-05-12T05:35:05.806Z,99.99
2018-05-12T05:36:06.836Z,99.99
2018-05-12T05:37:08.982Z,99.99
2018-05-12T05:38:05.212Z,99.99
2018-05-12T05:39:05.555Z,99.99
2018-05-12T05:40:04.824Z,99.99
2018-05-12T05:41:12.899Z,99.99
2018-05-12T05:42:04.784Z,99.99
2018-05-12T05:43:05.141Z,99.99
2018-05-12T05:44:06.014Z,99.99
2018-05-12T05:45:06.065Z,99.99
2018-05-12T05:46:05.083Z,99.99
2018-05-12T05:47:04.781Z,99.99
2018-05-12T05:48:05.326Z,99.99
2018-05-12T05:49:06.298Z,99.99
2018-05-12T05:50:05.521Z,99.99
2018-05-12T05:51:09.769Z,99.99
2018-05-12T05:52:04.601Z,99.99
2018-05-12T05:53:05.838Z,99.99
2018-05-12T05:54:04.863Z,99.82
2018-05-12T05:55:05.669Z,99.01
2018-05-12T05:56:05.408Z,98.10
2018-05-12T05:57:06.851Z,96.99
2018-05-12T05:58:04.976Z,96.99
2018-05-12T05:59:10.301Z,96.70
2018-05-12T06:00:05.250Z,96.32
2018-05-12T06:01:05.063Z,95.65
2018-05-12T06:02:05.029Z,95.26
2018-05-12T06:03:04.882Z,94.49
2018-05-12T06:04:05.221Z,94.69
2018-05-12T06:05:05.243Z,93.77
2018-05-12T06:06:05.718Z,93.68
2018-05-12T06:07:05.238Z,92.86
2018-05-12T06:08:05.249Z,92.57
2018-05-12T06:09:05.595Z,92.67
2018-05-12T06:10:04.688Z,92.38
2018-05-12T06:11:05.052Z,91.85
2018-05-12T06:12:04.931Z,91.61
2018-05-12T06:13:04.978Z,91.71
2018-05-12T06:14:05.287Z,91.75
2018-05-12T06:15:46.348Z,91.18
2018-05-12T06:16:47.480Z,91.47
2018-05-12T06:17:47.266Z,91.81
2018-05-12T06:18:47.470Z,92.19
2018-05-12T06:19:47.280Z,92.57
2018-05-12T06:20:46.996Z,92.38
2018-05-12T06:21:47.406Z,92.29
2018-05-12T06:23:08.754Z,92.29
2018-05-12T06:24:09.108Z,91.95
2018-05-12T06:25:09.427Z,91.56
2018-05-12T06:26:08.458Z,91.22
2018-05-12T06:27:29.683Z,90.80
2018-05-12T06:28:29.854Z,90.56
2018-05-12T06:29:30.122Z,91.04
2018-05-12T06:30:30.268Z,91.18
2018-05-12T06:31:30.080Z,90.51
2018-05-12T06:32:29.879Z,90.60
2018-05-12T06:33:29.771Z,90.55
2018-05-12T06:34:30.238Z,89.21
2018-05-12T06:35:30.549Z,89.07
2018-05-12T06:36:29.345Z,88.92
2018-05-12T06:37:29.898Z,88.00
2018-05-12T06:38:29.838Z,87.52
2018-05-12T06:39:30.279Z,88.24
2018-05-12T06:40:32.030Z,87.66
2018-05-12T06:41:30.662Z,86.02
2018-05-12T06:42:30.879Z,86.56
2018-05-12T06:43:30.114Z,87.04
2018-05-12T06:44:30.098Z,87.42
2018-05-12T06:45:51.313Z,87.81
2018-05-12T06:46:51.141Z,86.75
2018-05-12T06:47:51.855Z,86.94
2018-05-12T06:48:52.010Z,85.83
2018-05-12T06:50:01.995Z,86.07
2018-05-12T06:50:51.018Z,85.09
2018-05-12T06:51:51.232Z,82.76
2018-05-12T06:52:51.368Z,80.00
2018-05-12T06:53:51.755Z,78.27
2018-05-12T06:54:51.640Z,76.98
2018-05-12T06:55:51.719Z,77.40
2018-05-12T06:56:52.018Z,76.86
2018-05-12T06:57:51.873Z,76.18
2018-05-12T06:58:51.718Z,74.96
2018-05-12T06:59:51.930Z,73.71
2018-05-12T07:00:51.468Z,75.00
2018-05-12T07:01:52.745Z,72.30
2018-05-12T07:03:33.953Z,73.46
2018-05-12T07:04:35.127Z,72.78
2018-05-12T07:05:34.305Z,72.62
2018-05-12T07:06:34.130Z,70.47
2018-05-12T07:07:35.234Z,68.53
2018-05-12T07:08:34.165Z,68.69
2018-05-12T07:09:34.015Z,68.82
2018-05-12T07:10:36.400Z,69.31
2018-05-12T07:11:34.735Z,68.85
2018-05-12T07:12:34.625Z,67.92
2018-05-12T07:13:55.577Z,65.20
2018-05-12T07:14:56.964Z,64.62
2018-05-12T07:15:56.189Z,65.11
2018-05-12T07:16:55.892Z,64.72
2018-05-12T07:17:55.742Z,65.34
2018-05-12T07:18:56.833Z,64.47
2018-05-12T07:19:55.609Z,63.37
2018-05-12T07:20:56.699Z,64.24
2018-05-12T07:21:57.234Z,66.14
2018-05-12T07:22:56.654Z,66.11
2018-05-12T07:23:56.010Z,67.56
2018-05-12T07:24:55.824Z,66.69
2018-05-12T07:25:55.917Z,67.85
2018-05-12T07:26:55.711Z,66.63
2018-05-12T07:28:17.912Z,65.47
2018-05-12T07:29:18.233Z,65.43
2018-05-12T07:30:19.171Z,65.40
2018-05-12T07:31:20.987Z,68.46
2018-05-12T07:32:17.757Z,68.95
2018-05-12T07:33:17.640Z,69.59
2018-05-12T07:34:18.727Z,69.01
2018-05-12T07:35:18.001Z,69.01
2018-05-12T07:36:17.937Z,69.65
2018-05-12T07:37:17.683Z,70.56
2018-05-12T07:38:17.998Z,69.98
2018-05-12T07:39:39.374Z,68.49
2018-05-12T07:40:39.251Z,67.95
2018-05-12T07:41:39.576Z,65.85
2018-05-12T07:42:39.374Z,65.98
2018-05-12T07:43:39.156Z,65.47
2018-05-12T07:44:39.920Z,64.53
2018-05-12T07:45:40.230Z,64.20
2018-05-12T07:46:39.565Z,62.19
2018-05-12T07:47:39.590Z,61.00
2018-05-12T07:49:00.746Z,61.07
2018-05-12T07:50:01.198Z,62.07
2018-05-12T07:51:01.365Z,61.02
2018-05-12T07:52:01.236Z,60.83
2018-05-12T07:53:01.473Z,59.86
2018-05-12T07:54:00.399Z,59.08
2018-05-12T07:55:21.855Z,59.76
2018-05-12T07:56:22.746Z,59.38
2018-05-12T07:57:23.156Z,59.38
2018-05-12T07:58:22.073Z,59.47
2018-05-12T07:59:22.178Z,58.98
2018-05-12T08:00:22.566Z,59.08
2018-05-12T08:02:03.801Z,58.33
2018-05-12T08:03:04.747Z,57.75
2018-05-12T08:04:04.665Z,58.31
2018-05-12T08:05:04.621Z,58.50
2018-05-12T08:06:26.087Z,59.86
2018-05-12T08:07:26.201Z,59.21
2018-05-12T08:08:46.902Z,58.14
2018-05-12T08:09:48.210Z,56.68
2018-05-12T08:10:47.110Z,56.26
2018-05-12T08:11:47.266Z,57.43
2018-05-12T08:13:08.693Z,58.69
2018-05-12T08:14:08.820Z,58.92
2018-05-12T08:15:09.069Z,57.78
2018-05-12T08:16:09.218Z,56.95
2018-05-12T08:17:29.910Z,57.56
2018-05-12T08:18:30.512Z,57.65
2018-05-12T08:19:50.920Z,56.90
2018-05-12T08:20:52.168Z,57.20
2018-05-12T08:21:51.112Z,57.12
2018-05-12T08:22:50.963Z,56.67
2018-05-12T08:23:51.784Z,56.05
2018-05-12T08:24:51.524Z,56.12
2018-05-12T08:25:51.674Z,57.03
2018-05-12T08:26:52.048Z,57.15
2018-05-12T08:27:51.859Z,56.01
2018-05-12T08:28:51.645Z,54.38
2018-05-12T08:29:51.487Z,54.28
2018-05-12T08:30:51.369Z,54.38
2018-05-12T08:31:51.556Z,53.67
2018-05-12T08:32:51.756Z,54.60
2018-05-12T08:33:51.589Z,56.05
2018-05-12T08:35:33.007Z,56.25
2018-05-12T08:36:32.994Z,55.99
2018-05-12T08:37:34.967Z,56.27
2018-05-12T08:38:33.844Z,55.36
2018-05-12T08:40:16.455Z,54.28
2018-05-12T08:41:16.392Z,53.53
2018-05-12T08:42:16.596Z,52.66
2018-05-12T08:43:16.551Z,53.31
2018-05-12T08:44:16.782Z,53.14
2018-05-12T08:45:17.043Z,53.24
2018-05-12T08:46:38.045Z,53.46
2018-05-12T08:47:37.962Z,51.61
2018-05-12T08:48:38.434Z,51.21
2018-05-12T08:49:59.626Z,51.58
2018-05-12T08:51:20.261Z,51.36
2018-05-12T08:52:20.943Z,51.68
2018-05-12T08:53:21.124Z,52.24
2018-05-12T08:54:42.203Z,52.19
2018-05-12T08:55:52.712Z,52.51
2018-05-12T08:56:47.220Z,51.12
2018-05-12T08:57:42.216Z,51.68
2018-05-12T08:59:03.101Z,51.39
2018-05-12T09:00:03.093Z,51.29
2018-05-12T09:01:05.650Z,51.21
2018-05-12T09:02:03.891Z,52.31
2018-05-12T09:03:04.767Z,50.59
2018-05-12T09:04:04.728Z,51.49
2018-05-12T09:05:03.583Z,49.73
2018-05-12T09:06:03.529Z,49.33
2018-05-12T09:07:03.584Z,49.53
2018-05-12T09:08:03.431Z,49.61
2018-05-12T09:09:03.731Z,49.32
2018-05-12T09:10:24.733Z,49.22
2018-05-12T09:11:47.246Z,49.61
2018-05-12T09:13:08.366Z,49.12
2018-05-12T09:14:08.239Z,49.02
2018-05-12T09:15:08.231Z,49.51
2018-05-12T09:16:08.689Z,49.58
2018-05-12T09:17:35.357Z,49.80
2018-05-12T09:18:31.201Z,50.49
2018-05-12T09:19:31.431Z,49.80
2018-05-12T09:20:31.803Z,49.41
2018-05-12T09:21:32.166Z,49.32
2018-05-12T09:22:31.764Z,49.90
2018-05-12T09:23:32.019Z,49.71
2018-05-12T09:24:32.195Z,50.68
2018-05-12T09:25:31.342Z,49.73
2018-05-12T09:26:52.943Z,48.93
2018-05-12T09:27:53.923Z,49.78
2018-05-12T09:28:52.836Z,50.39
2018-05-12T09:29:53.090Z,49.90
2018-05-12T09:30:52.988Z,51.12
2018-05-12T09:31:53.080Z,51.76
2018-05-12T09:32:53.232Z,50.26
2018-05-12T09:33:53.548Z,49.90
2018-05-12T09:34:52.747Z,50.05
2018-05-12T09:35:52.900Z,48.80
2018-05-12T09:36:53.037Z,47.94
2018-05-12T09:37:53.373Z,47.08
2018-05-12T09:39:34.516Z,47.69
2018-05-12T09:40:57.527Z,47.65
2018-05-12T09:41:56.326Z,47.01
2018-05-12T09:42:56.209Z,45.88
2018-05-12T09:43:56.031Z,44.92
2018-05-12T09:44:56.033Z,45.92
2018-05-12T09:45:56.060Z,44.53
2018-05-12T09:46:56.804Z,45.32
2018-05-12T09:47:56.728Z,46.97
2018-05-12T09:48:56.632Z,46.79
2018-05-12T09:49:56.907Z,47.45
2018-05-12T09:51:17.290Z,46.77
2018-05-12T09:52:19.463Z,47.82
2018-05-12T09:53:18.241Z,46.92
2018-05-12T09:54:18.836Z,49.02
2018-05-12T09:55:17.736Z,50.00
2018-05-12T09:56:17.835Z,49.53
2018-05-12T09:57:17.970Z,50.10
2018-05-12T09:58:18.850Z,49.98
2018-05-12T09:59:17.926Z,50.14
2018-05-12T10:00:18.226Z,51.65
2018-05-12T10:01:17.637Z,52.89
2018-05-12T10:02:17.699Z,54.13
2018-05-12T10:03:17.519Z,54.89
2018-05-12T10:04:17.696Z,55.27
2018-05-12T10:05:18.526Z,55.47
2018-05-12T10:06:17.508Z,54.52
2018-05-12T10:07:17.759Z,54.91
2018-05-12T10:08:17.751Z,56.12
2018-05-12T10:09:18.040Z,56.87
2018-05-12T10:10:18.303Z,58.17
2018-05-12T10:11:17.514Z,57.97
2018-05-12T10:12:17.826Z,56.90
2018-05-12T10:13:18.060Z,56.20
2018-05-12T10:14:17.920Z,56.90
2018-05-12T10:15:18.232Z,56.87
2018-05-12T10:16:18.012Z,57.00
2018-05-12T10:17:17.732Z,56.35
2018-05-12T10:18:19.199Z,55.21
2018-05-12T10:19:17.305Z,55.01
2018-05-12T10:20:17.536Z,54.09
2018-05-12T10:21:18.548Z,54.17
2018-05-12T10:22:17.816Z,50.59
2018-05-12T10:23:18.207Z,51.00
2018-05-12T10:24:17.520Z,49.85
2018-05-12T10:25:17.394Z,48.77
2018-05-12T10:26:37.801Z,49.07
2018-05-12T10:27:38.661Z,51.26
2018-05-12T10:28:38.836Z,52.77
2018-05-12T10:29:38.966Z,53.70
2018-05-12T10:30:38.152Z,52.09
2018-05-12T10:31:39.105Z,52.05
2018-05-12T10:32:38.077Z,49.75
2018-05-12T10:33:58.967Z,47.50
2018-05-12T10:34:59.259Z,48.26
2018-05-12T10:35:59.024Z,48.80
2018-05-12T10:36:58.960Z,48.54
2018-05-12T10:37:58.724Z,47.97
2018-05-12T10:38:58.651Z,50.09
2018-05-12T10:40:19.122Z,50.26
2018-05-12T10:41:40.934Z,48.94
2018-05-12T10:42:42.206Z,48.58
2018-05-12T10:44:02.846Z,48.55
2018-05-12T10:45:02.363Z,49.22
2018-05-12T10:46:02.625Z,49.41
2018-05-12T10:47:02.711Z,48.14
2018-05-12T10:48:02.639Z,48.97
2018-05-12T10:49:02.827Z,50.60
2018-05-12T10:50:02.736Z,51.07
2018-05-12T10:51:02.647Z,52.28
2018-05-12T10:52:02.632Z,52.65
2018-05-12T10:53:02.828Z,54.30
2018-05-12T10:54:03.123Z,54.30
2018-05-12T10:55:02.557Z,54.60
2018-05-12T10:56:02.679Z,54.50
2018-05-12T10:57:02.818Z,54.40
2018-05-12T10:58:02.011Z,53.36
2018-05-12T10:59:01.943Z,54.01
2018-05-12T11:00:02.272Z,53.79
2018-05-12T11:01:02.279Z,55.80
2018-05-12T11:02:02.547Z,55.10
2018-05-12T11:03:02.716Z,56.04
2018-05-12T11:04:02.753Z,57.01
2018-05-12T11:05:03.097Z,57.86
2018-05-12T11:06:02.617Z,58.73
2018-05-12T11:07:02.718Z,59.48
2018-05-12T11:08:03.772Z,59.97
2018-05-12T11:09:02.643Z,59.67
2018-05-12T11:10:03.309Z,60.45
2018-05-12T11:11:23.521Z,60.06
2018-05-12T11:12:24.393Z,59.58
2018-05-12T11:13:44.393Z,59.84
2018-05-12T11:14:46.079Z,59.61
2018-05-12T11:15:45.475Z,60.07
2018-05-12T11:16:45.242Z,60.85
2018-05-12T11:17:45.514Z,60.94
2018-05-12T11:18:44.800Z,61.07
2018-05-12T11:19:46.321Z,61.07
2018-05-12T11:20:45.606Z,61.14
2018-05-12T11:21:45.153Z,61.52
2018-05-12T11:22:46.363Z,60.49
2018-05-12T11:23:44.767Z,59.03
2018-05-12T11:24:44.734Z,58.50
2018-05-12T11:25:44.663Z,57.78
2018-05-12T11:26:45.445Z,56.54
2018-05-12T11:27:44.670Z,56.93
2018-05-12T11:28:45.181Z,56.61
2018-05-12T11:30:07.534Z,57.65
2018-05-12T11:31:06.815Z,57.82
2018-05-12T11:32:07.428Z,58.15
2018-05-12T11:33:26.938Z,60.13
2018-05-12T11:34:28.566Z,60.88
2018-05-12T11:36:10.079Z,60.71
2018-05-12T11:37:10.453Z,60.58
2018-05-12T11:38:10.380Z,58.37
2018-05-12T11:39:10.885Z,58.73
2018-05-12T11:40:10.999Z,59.61
2018-05-12T11:41:11.508Z,58.83
2018-05-12T11:42:10.536Z,59.03
2018-05-12T11:43:10.428Z,59.05
2018-05-12T11:44:10.718Z,58.59
2018-05-12T11:45:52.262Z,57.59
2018-05-12T11:46:52.480Z,56.54
2018-05-12T11:47:52.336Z,55.08
2018-05-12T11:48:52.352Z,54.91
2018-05-12T11:49:52.357Z,53.85
2018-05-12T11:50:52.192Z,53.36
2018-05-12T11:51:52.365Z,53.72
2018-05-12T11:52:52.622Z,54.18
2018-05-12T11:53:52.928Z,54.35
2018-05-12T11:54:53.132Z,54.30
2018-05-12T11:55:52.037Z,54.21
2018-05-12T11:57:12.955Z,54.16
2018-05-12T11:58:12.877Z,53.02
2018-05-12T11:59:12.821Z,52.14
2018-05-12T12:00:13.626Z,53.28
2018-05-12T12:01:13.421Z,52.50
2018-05-12T12:02:14.005Z,52.07
2018-05-12T12:03:13.242Z,51.14
2018-05-12T12:04:13.579Z,50.00
2018-05-12T12:05:13.586Z,50.81
2018-05-12T12:06:13.772Z,48.65
2018-05-12T12:07:13.568Z,48.63
2018-05-12T12:08:14.165Z,49.98
2018-05-12T12:10:36.873Z,51.82
2018-05-12T12:11:38.136Z,52.70
2018-05-12T12:12:57.481Z,52.87
2018-05-12T12:13:58.671Z,52.87
2018-05-12T12:14:58.596Z,53.55
2018-05-12T12:15:57.959Z,52.92
2018-05-12T12:16:59.494Z,52.66
2018-05-12T12:18:19.570Z,51.46
2018-05-12T12:19:20.954Z,53.36
2018-05-12T12:20:20.358Z,54.54
2018-05-12T12:21:20.731Z,55.75
2018-05-12T12:22:20.532Z,56.77
2018-05-12T12:23:19.544Z,55.13
2018-05-12T12:24:20.517Z,55.78
2018-05-12T12:25:20.799Z,56.34
2018-05-12T12:26:19.907Z,56.92
2018-05-12T12:27:20.207Z,56.26
2018-05-12T12:28:20.221Z,55.58
2018-05-12T12:29:20.600Z,55.27
2018-05-12T12:30:42.031Z,56.07
2018-05-12T12:31:41.952Z,55.41
2018-05-12T12:32:42.936Z,55.15
2018-05-12T12:33:41.858Z,54.57
2018-05-12T12:34:42.044Z,53.81
2018-05-12T12:36:03.014Z,53.69
2018-05-12T12:37:02.754Z,53.89
2018-05-12T12:38:02.794Z,53.52
2018-05-12T12:39:02.833Z,53.85
2018-05-12T12:40:02.648Z,51.80
2018-05-12T12:41:03.451Z,51.80
2018-05-12T12:42:03.787Z,52.53
2018-05-12T12:43:02.756Z,51.07
2018-05-12T12:44:23.267Z,52.12
2018-05-12T12:45:24.674Z,50.68
2018-05-12T12:46:23.593Z,50.19
2018-05-12T12:47:23.542Z,49.99
2018-05-12T12:48:23.494Z,49.41
2018-05-12T12:49:24.297Z,49.51
2018-05-12T12:50:24.247Z,49.99
2018-05-12T12:51:24.219Z,51.07
2018-05-12T12:52:24.128Z,49.99
2018-05-12T12:53:24.315Z,51.02
2018-05-12T12:54:24.175Z,51.58
2018-05-12T12:55:23.946Z,52.53
2018-05-12T12:56:23.831Z,52.89
2018-05-12T12:57:24.106Z,53.54
2018-05-12T12:58:23.877Z,53.83
2018-05-12T12:59:24.097Z,54.32
2018-05-12T13:00:24.172Z,54.68
2018-05-12T13:01:24.631Z,55.14
2018-05-12T13:02:23.610Z,55.28
2018-05-12T13:03:23.911Z,56.25
2018-05-12T13:04:23.845Z,56.93
2018-05-12T13:05:23.641Z,57.22
2018-05-12T13:06:23.500Z,57.12
2018-05-12T13:07:43.824Z,56.71
2018-05-12T13:08:44.639Z,57.29
2018-05-12T13:09:44.499Z,56.90
2018-05-12T13:10:44.404Z,57.68
2018-05-12T13:11:44.690Z,58.26
2018-05-12T13:12:44.711Z,57.97
2018-05-12T13:13:44.582Z,58.16
2018-05-12T13:14:44.356Z,58.36
2018-05-12T13:15:44.254Z,58.72
2018-05-12T13:16:44.411Z,58.52
2018-05-12T13:17:44.674Z,58.06
2018-05-12T13:18:44.915Z,57.55
2018-05-12T13:19:43.892Z,58.23
2018-05-12T13:20:43.912Z,58.39
2018-05-12T13:21:44.127Z,59.00
2018-05-12T13:22:44.499Z,59.10
2018-05-12T13:23:44.983Z,59.49
2018-05-12T13:24:44.367Z,59.69
2018-05-12T13:25:44.329Z,59.66
2018-05-12T13:26:44.711Z,59.66
2018-05-12T13:27:44.662Z,59.53
2018-05-12T13:28:44.825Z,60.21
2018-05-12T13:29:45.611Z,60.98
2018-05-12T13:30:44.567Z,60.69
2018-05-12T13:31:44.761Z,60.98